Date,TemperatureHighF,TemperatureAvgF,TemperatureLowF,DewpointHighF,DewpointAvgF,DewpointLowF,HumidityHigh,HumidityAvg,HumidityLow,PressureMaxIn,PressureMinIn,WindSpeedMaxMPH,WindSpeedAvgMPH,GustSpeedMaxMPH,PrecipitationSumIn
2013-3-1,37.8,33.7,28.4,34.9,29.0,25.5,100,84,67,29.65,29.50,11,3,15,0.02
2013-3-2,41.9,33.9,29.1,27.4,25.5,23.8,91,72,56,29.64,29.59,16,5,20,0.00
2013-3-3,40.5,32.0,27.6,28.1,25.7,22.2,91,78,60,29.62,29.53,17,5,20,0.05
2013-3-4,34.0,28.6,25.8,22.7,20.4,18.5,79,71,61,29.75,29.56,24,9,26,0.01
2013-3-5,42.8,33.7,26.1,32.1,25.5,19.0,92,73,52,30.06,29.75,14,3,21,0.00
2013-3-6,36.6,34.1,31.3,32.2,28.6,24.4,96,81,67,30.19,30.06,24,8,24,0.03
2013-3-7,34.3,31.8,30.0,28.6,24.9,22.5,93,76,65,30.13,30.05,18,7,23,0.02
2013-3-8,44.9,34.6,29.5,28.3,22.7,17.5,93,64,34,30.05,30.01,19,7,21,0.04
2013-3-9,55.6,41.8,25.3,26.0,18.2,9.0,89,45,16,30.33,30.18,5,1,7,0.00
2013-3-10,46.7,33.7,21.6,29.4,25.6,20.1,95,75,44,30.39,30.25,8,2,9,0.00
2013-3-11,49.1,38.7,30.0,34.2,30.1,28.4,96,73,45,30.27,30.08,13,2,14,0.00
2013-3-12,47.6,40.4,34.1,47.6,39.8,31.8,100,98,90,30.09,29.68,8,2,9,0.58
2013-3-13,47.3,38.8,28.2,43.6,31.5,24.6,100,78,47,29.73,29.67,20,6,23,0.01
2013-3-14,35.3,27.6,17.7,26.6,17.2,2.2,95,66,43,29.80,29.64,24,8,27,0.00
2013-3-15,37.2,25.1,15.1,28.8,11.0,0.2,96,58,27,29.81,29.58,22,8,32,0.00
2013-3-16,32.4,27.0,19.1,19.7,12.6,7.2,82,56,36,29.86,29.64,16,5,19,0.05
2013-3-17,30.0,22.4,14.1,12.5,4.1,-5.3,83,49,25,30.29,29.87,31,7,43,0.01
2013-3-18,35.3,23.8,9.5,18.7,2.1,-5.5,68,41,20,30.43,30.22,9,2,12,0.00
2013-3-19,31.3,27.3,23.6,28.4,24.8,17.6,95,90,60,30.22,29.70,16,6,23,0.02
2013-3-20,35.6,28.3,22.9,24.1,20.6,17.4,94,74,51,29.72,29.63,26,8,30,0.21
2013-3-21,38.5,27.8,17.2,18.6,14.5,9.0,84,60,29,29.74,29.57,9,2,12,0.44
2013-3-22,37.8,29.8,21.0,23.0,16.2,12.5,76,58,38,29.67,29.58,17,5,23,0.01
2013-3-23,39.9,31.7,23.3,22.8,19.7,15.9,79,62,41,29.72,29.57,31,11,44,0.01
2013-3-24,42.6,35.4,26.9,24.6,22.9,21.4,80,61,43,29.80,29.71,19,6,25,0.00
2013-3-25,43.6,32.2,21.1,29.2,24.4,19.4,94,75,49,29.76,29.55,15,3,19,0.00
2013-3-26,47.3,38.6,31.3,28.5,22.3,15.4,86,55,28,29.74,29.56,16,3,18,0.00
2013-3-27,48.6,37.2,25.3,32.3,26.0,21.5,88,66,38,29.85,29.73,20,4,23,0.00
2013-3-28,45.8,38.5,32.4,35.5,31.9,29.5,100,79,54,29.99,29.85,7,1,14,0.01
2013-3-29,50.4,41.2,32.7,35.7,32.0,29.2,92,71,49,30.01,29.95,19,4,22,0.00
2013-3-30,51.9,40.5,29.1,31.2,23.1,11.5,94,55,23,30.07,29.98,15,3,22,0.00
2013-3-31,56.5,39.5,24.1,38.5,23.4,16.4,98,58,24,30.09,29.77,15,3,20,0.03